sensor_id;sensor_type;location;lat;lon;timestamp;P1;durP1;ratioP1;P2;durP2;ratioP2
54923;SDS011;40825;52.270;20.984;2023-03-05T00:01:15;6.60;;;2.20;;
54923;SDS011;40825;52.270;20.984;2023-03-05T00:03:42;4.70;;;1.10;;
54923;SDS011;40825;52.270;20.984;2023-03-05T00:06:09;10.10;;;2.10;;
54923;SDS011;40825;52.270;20.984;2023-03-05T00:08:35;7.00;;;2.10;;
54923;SDS011;40825;52.270;20.984;2023-03-05T00:11:02;6.90;;;1.90;;
54923;SDS011;40825;52.270;20.984;2023-03-05T00:13:30;6.90;;;2.30;;
54923;SDS011;40825;52.270;20.984;2023-03-05T00:15:56;7.40;;;1.60;;
54923;SDS011;40825;52.270;20.984;2023-03-05T00:18:21;8.30;;;1.70;;
54923;SDS011;40825;52.270;20.984;2023-03-05T00:20:47;7.90;;;2.00;;
54923;SDS011;40825;52.270;20.984;2023-03-05T00:23:13;7.60;;;2.10;;
54923;SDS011;40825;52.270;20.984;2023-03-05T00:25:39;8.70;;;2.00;;
54923;SDS011;40825;52.270;20.984;2023-03-05T00:28:05;10.20;;;2.30;;
54923;SDS011;40825;52.270;20.984;2023-03-05T00:30:32;9.30;;;2.30;;
54923;SDS011;40825;52.270;20.984;2023-03-05T00:32:58;9.60;;;2.20;;
54923;SDS011;40825;52.270;20.984;2023-03-05T00:35:24;8.10;;;2.90;;
54923;SDS011;40825;52.270;20.984;2023-03-05T00:37:49;11.60;;;2.20;;
54923;SDS011;40825;52.270;20.984;2023-03-05T00:40:15;9.60;;;3.30;;
54923;SDS011;40825;52.270;20.984;2023-03-05T00:42:41;7.70;;;2.50;;
54923;SDS011;40825;52.270;20.984;2023-03-05T00:45:07;15.80;;;3.10;;
54923;SDS011;40825;52.270;20.984;2023-03-05T00:47:34;14.30;;;3.90;;
54923;SDS011;40825;52.270;20.984;2023-03-05T00:50:00;13.20;;;3.70;;
54923;SDS011;40825;52.270;20.984;2023-03-05T00:52:26;12.20;;;3.60;;
54923;SDS011;40825;52.270;20.984;2023-03-05T00:54:52;14.10;;;3.80;;
54923;SDS011;40825;52.270;20.984;2023-03-05T00:57:17;14.50;;;3.90;;
54923;SDS011;40825;52.270;20.984;2023-03-05T00:59:43;15.70;;;4.10;;
54923;SDS011;40825;52.270;20.984;2023-03-05T01:02:09;12.00;;;3.20;;
54923;SDS011;40825;52.270;20.984;2023-03-05T01:04:35;9.70;;;2.80;;
54923;SDS011;40825;52.270;20.984;2023-03-05T01:07:00;13.70;;;3.40;;
54923;SDS011;40825;52.270;20.984;2023-03-05T01:09:26;17.20;;;4.30;;
54923;SDS011;40825;52.270;20.984;2023-03-05T01:11:52;10.90;;;3.70;;
54923;SDS011;40825;52.270;20.984;2023-03-05T01:14:18;11.60;;;2.80;;
54923;SDS011;40825;52.270;20.984;2023-03-05T01:16:44;10.80;;;3.40;;
54923;SDS011;40825;52.270;20.984;2023-03-05T01:19:11;9.50;;;3.00;;
54923;SDS011;40825;52.270;20.984;2023-03-05T01:21:37;14.00;;;4.10;;
54923;SDS011;40825;52.270;20.984;2023-03-05T01:24:03;11.10;;;3.30;;
54923;SDS011;40825;52.270;20.984;2023-03-05T01:26:30;10.20;;;3.30;;
54923;SDS011;40825;52.270;20.984;2023-03-05T01:28:55;9.80;;;3.40;;
54923;SDS011;40825;52.270;20.984;2023-03-05T01:31:21;10.60;;;3.30;;
54923;SDS011;40825;52.270;20.984;2023-03-05T01:33:46;18.60;;;4.30;;
54923;SDS011;40825;52.270;20.984;2023-03-05T01:36:13;13.00;;;3.70;;
54923;SDS011;40825;52.270;20.984;2023-03-05T01:38:41;14.90;;;4.60;;
54923;SDS011;40825;52.270;20.984;2023-03-05T01:41:09;12.60;;;4.40;;
54923;SDS011;40825;52.270;20.984;2023-03-05T01:43:36;14.10;;;4.20;;
54923;SDS011;40825;52.270;20.984;2023-03-05T01:54:25;15.40;;;4.30;;
54923;SDS011;40825;52.270;20.984;2023-03-05T01:56:56;15.70;;;3.80;;
54923;SDS011;40825;52.270;20.984;2023-03-05T01:59:24;16.10;;;5.10;;
54923;SDS011;40825;52.270;20.984;2023-03-05T02:02:37;12.90;;;4.40;;
54923;SDS011;40825;52.270;20.984;2023-03-05T02:05:08;15.30;;;5.30;;
54923;SDS011;40825;52.270;20.984;2023-03-05T02:07:37;13.90;;;4.10;;
54923;SDS011;40825;52.270;20.984;2023-03-05T02:10:14;16.60;;;4.80;;
54923;SDS011;40825;52.270;20.984;2023-03-05T02:12:45;12.30;;;4.40;;
54923;SDS011;40825;52.270;20.984;2023-03-05T02:15:12;15.00;;;5.10;;
54923;SDS011;40825;52.270;20.984;2023-03-05T02:17:38;13.20;;;4.50;;
54923;SDS011;40825;52.270;20.984;2023-03-05T02:20:06;15.70;;;4.10;;
54923;SDS011;40825;52.270;20.984;2023-03-05T02:22:34;13.30;;;4.70;;
54923;SDS011;40825;52.270;20.984;2023-03-05T02:25:00;15.70;;;4.70;;
54923;SDS011;40825;52.270;20.984;2023-03-05T02:27:27;14.00;;;4.80;;
54923;SDS011;40825;52.270;20.984;2023-03-05T02:29:59;16.00;;;5.50;;
54923;SDS011;40825;52.270;20.984;2023-03-05T02:32:26;14.00;;;4.70;;
54923;SDS011;40825;52.270;20.984;2023-03-05T02:34:51;14.10;;;5.30;;
54923;SDS011;40825;52.270;20.984;2023-03-05T02:37:17;14.10;;;4.50;;
54923;SDS011;40825;52.270;20.984;2023-03-05T02:39:42;16.10;;;5.60;;
54923;SDS011;40825;52.270;20.984;2023-03-05T02:42:08;11.70;;;4.70;;
54923;SDS011;40825;52.270;20.984;2023-03-05T02:44:34;13.00;;;5.20;;
54923;SDS011;40825;52.270;20.984;2023-03-05T02:46:59;12.70;;;4.90;;
54923;SDS011;40825;52.270;20.984;2023-03-05T02:49:25;13.80;;;4.60;;
54923;SDS011;40825;52.270;20.984;2023-03-05T02:51:51;15.20;;;4.90;;
54923;SDS011;40825;52.270;20.984;2023-03-05T02:54:16;12.30;;;4.20;;
54923;SDS011;40825;52.270;20.984;2023-03-05T02:56:42;16.30;;;4.60;;
54923;SDS011;40825;52.270;20.984;2023-03-05T02:59:07;15.50;;;4.90;;
54923;SDS011;40825;52.270;20.984;2023-03-05T03:01:33;14.40;;;4.70;;
54923;SDS011;40825;52.270;20.984;2023-03-05T03:03:59;15.30;;;5.60;;
54923;SDS011;40825;52.270;20.984;2023-03-05T03:06:24;17.90;;;5.60;;
54923;SDS011;40825;52.270;20.984;2023-03-05T03:08:50;15.80;;;4.90;;
54923;SDS011;40825;52.270;20.984;2023-03-05T03:11:15;15.40;;;5.30;;
54923;SDS011;40825;52.270;20.984;2023-03-05T03:13:41;12.10;;;4.80;;
54923;SDS011;40825;52.270;20.984;2023-03-05T03:16:08;14.90;;;6.10;;
54923;SDS011;40825;52.270;20.984;2023-03-05T03:18:36;12.60;;;4.60;;
54923;SDS011;40825;52.270;20.984;2023-03-05T03:21:02;13.30;;;4.80;;
54923;SDS011;40825;52.270;20.984;2023-03-05T03:23:29;14.90;;;4.90;;
54923;SDS011;40825;52.270;20.984;2023-03-05T03:25:55;11.70;;;3.90;;
54923;SDS011;40825;52.270;20.984;2023-03-05T03:28:20;11.10;;;4.00;;
54923;SDS011;40825;52.270;20.984;2023-03-05T03:30:46;15.80;;;4.90;;
54923;SDS011;40825;52.270;20.984;2023-03-05T03:33:12;14.10;;;4.90;;
54923;SDS011;40825;52.270;20.984;2023-03-05T03:35:38;12.50;;;3.80;;
54923;SDS011;40825;52.270;20.984;2023-03-05T03:38:03;12.70;;;3.70;;
54923;SDS011;40825;52.270;20.984;2023-03-05T03:40:29;11.00;;;3.50;;
54923;SDS011;40825;52.270;20.984;2023-03-05T03:42:55;14.90;;;4.30;;
54923;SDS011;40825;52.270;20.984;2023-03-05T03:45:21;12.10;;;3.60;;
54923;SDS011;40825;52.270;20.984;2023-03-05T03:47:48;13.50;;;4.60;;
54923;SDS011;40825;52.270;20.984;2023-03-05T03:50:15;11.80;;;3.90;;
54923;SDS011;40825;52.270;20.984;2023-03-05T03:52:41;11.10;;;3.60;;
54923;SDS011;40825;52.270;20.984;2023-03-05T03:55:06;13.90;;;3.60;;
54923;SDS011;40825;52.270;20.984;2023-03-05T03:57:32;11.90;;;3.70;;
54923;SDS011;40825;52.270;20.984;2023-03-05T03:59:58;13.90;;;3.70;;
54923;SDS011;40825;52.270;20.984;2023-03-05T04:02:24;13.30;;;4.50;;
54923;SDS011;40825;52.270;20.984;2023-03-05T04:04:50;11.60;;;3.50;;
54923;SDS011;40825;52.270;20.984;2023-03-05T04:07:16;12.40;;;3.60;;
54923;SDS011;40825;52.270;20.984;2023-03-05T04:09:42;12.20;;;4.80;;
54923;SDS011;40825;52.270;20.984;2023-03-05T04:12:07;12.50;;;4.40;;
54923;SDS011;40825;52.270;20.984;2023-03-05T04:14:33;14.30;;;3.70;;
54923;SDS011;40825;52.270;20.984;2023-03-05T04:16:59;16.10;;;4.20;;
54923;SDS011;40825;52.270;20.984;2023-03-05T04:19:24;13.40;;;4.00;;
54923;SDS011;40825;52.270;20.984;2023-03-05T04:21:50;12.90;;;4.10;;
54923;SDS011;40825;52.270;20.984;2023-03-05T04:24:15;11.70;;;4.30;;
54923;SDS011;40825;52.270;20.984;2023-03-05T04:26:41;14.80;;;4.00;;
54923;SDS011;40825;52.270;20.984;2023-03-05T04:29:06;12.90;;;4.00;;
54923;SDS011;40825;52.270;20.984;2023-03-05T04:31:32;12.60;;;3.80;;
54923;SDS011;40825;52.270;20.984;2023-03-05T04:33:58;12.40;;;3.60;;
54923;SDS011;40825;52.270;20.984;2023-03-05T04:36:23;13.50;;;4.20;;
54923;SDS011;40825;52.270;20.984;2023-03-05T04:38:49;12.30;;;3.60;;
54923;SDS011;40825;52.270;20.984;2023-03-05T04:41:15;13.90;;;4.10;;
54923;SDS011;40825;52.270;20.984;2023-03-05T04:43:40;14.00;;;4.00;;
54923;SDS011;40825;52.270;20.984;2023-03-05T04:46:05;9.90;;;4.10;;
54923;SDS011;40825;52.270;20.984;2023-03-05T04:48:31;12.10;;;4.10;;
54923;SDS011;40825;52.270;20.984;2023-03-05T04:50:56;13.90;;;4.60;;
54923;SDS011;40825;52.270;20.984;2023-03-05T04:53:22;8.90;;;3.20;;
54923;SDS011;40825;52.270;20.984;2023-03-05T04:55:51;12.40;;;3.50;;
54923;SDS011;40825;52.270;20.984;2023-03-05T04:58:18;10.50;;;3.20;;
54923;SDS011;40825;52.270;20.984;2023-03-05T05:00:44;10.00;;;3.20;;
54923;SDS011;40825;52.270;20.984;2023-03-05T05:03:09;12.00;;;3.60;;
54923;SDS011;40825;52.270;20.984;2023-03-05T05:05:35;10.20;;;2.80;;
54923;SDS011;40825;52.270;20.984;2023-03-05T05:08:01;10.10;;;3.60;;
54923;SDS011;40825;52.270;20.984;2023-03-05T05:10:27;11.30;;;3.30;;
54923;SDS011;40825;52.270;20.984;2023-03-05T05:12:53;9.90;;;3.30;;
54923;SDS011;40825;52.270;20.984;2023-03-05T05:15:19;9.20;;;3.20;;
54923;SDS011;40825;52.270;20.984;2023-03-05T05:17:45;12.00;;;3.00;;
54923;SDS011;40825;52.270;20.984;2023-03-05T05:20:11;8.80;;;3.80;;
54923;SDS011;40825;52.270;20.984;2023-03-05T05:22:39;12.70;;;3.90;;
54923;SDS011;40825;52.270;20.984;2023-03-05T05:25:05;9.00;;;3.20;;
54923;SDS011;40825;52.270;20.984;2023-03-05T05:27:32;10.10;;;3.60;;
54923;SDS011;40825;52.270;20.984;2023-03-05T05:29:58;10.00;;;3.00;;
54923;SDS011;40825;52.270;20.984;2023-03-05T05:32:23;12.00;;;3.80;;
54923;SDS011;40825;52.270;20.984;2023-03-05T05:34:56;13.90;;;2.90;;
54923;SDS011;40825;52.270;20.984;2023-03-05T05:37:23;10.80;;;3.50;;
54923;SDS011;40825;52.270;20.984;2023-03-05T05:39:50;8.50;;;3.10;;
54923;SDS011;40825;52.270;20.984;2023-03-05T05:42:16;9.40;;;3.20;;
54923;SDS011;40825;52.270;20.984;2023-03-05T05:44:42;10.00;;;2.80;;
54923;SDS011;40825;52.270;20.984;2023-03-05T05:47:09;10.10;;;3.00;;
54923;SDS011;40825;52.270;20.984;2023-03-05T05:49:35;10.30;;;3.00;;
54923;SDS011;40825;52.270;20.984;2023-03-05T05:52:00;11.00;;;2.90;;
54923;SDS011;40825;52.270;20.984;2023-03-05T05:54:26;10.40;;;2.30;;
54923;SDS011;40825;52.270;20.984;2023-03-05T05:56:51;8.80;;;2.70;;
54923;SDS011;40825;52.270;20.984;2023-03-05T05:59:17;8.50;;;2.10;;
54923;SDS011;40825;52.270;20.984;2023-03-05T06:01:43;12.70;;;3.20;;
54923;SDS011;40825;52.270;20.984;2023-03-05T06:04:09;9.30;;;3.30;;
54923;SDS011;40825;52.270;20.984;2023-03-05T06:06:34;11.80;;;3.40;;
54923;SDS011;40825;52.270;20.984;2023-03-05T06:09:00;9.00;;;2.80;;
54923;SDS011;40825;52.270;20.984;2023-03-05T06:11:26;8.80;;;2.90;;
54923;SDS011;40825;52.270;20.984;2023-03-05T06:13:52;10.80;;;2.70;;
54923;SDS011;40825;52.270;20.984;2023-03-05T06:16:21;12.20;;;2.80;;
54923;SDS011;40825;52.270;20.984;2023-03-05T06:18:49;9.00;;;2.70;;
54923;SDS011;40825;52.270;20.984;2023-03-05T06:21:18;14.20;;;2.70;;
54923;SDS011;40825;52.270;20.984;2023-03-05T06:23:45;8.90;;;3.30;;
54923;SDS011;40825;52.270;20.984;2023-03-05T06:26:12;10.20;;;3.60;;
54923;SDS011;40825;52.270;20.984;2023-03-05T06:28:40;7.50;;;2.20;;
54923;SDS011;40825;52.270;20.984;2023-03-05T06:31:09;7.80;;;2.70;;
54923;SDS011;40825;52.270;20.984;2023-03-05T06:33:37;10.00;;;2.80;;
54923;SDS011;40825;52.270;20.984;2023-03-05T06:36:04;12.20;;;2.50;;
54923;SDS011;40825;52.270;20.984;2023-03-05T06:38:32;11.40;;;3.30;;
54923;SDS011;40825;52.270;20.984;2023-03-05T06:41:05;10.30;;;2.80;;
54923;SDS011;40825;52.270;20.984;2023-03-05T06:43:33;8.40;;;2.90;;
54923;SDS011;40825;52.270;20.984;2023-03-05T06:46:07;14.60;;;3.30;;
54923;SDS011;40825;52.270;20.984;2023-03-05T06:48:37;8.90;;;2.50;;
54923;SDS011;40825;52.270;20.984;2023-03-05T06:51:03;9.60;;;2.80;;
54923;SDS011;40825;52.270;20.984;2023-03-05T06:53:29;8.70;;;3.00;;
54923;SDS011;40825;52.270;20.984;2023-03-05T06:55:54;9.50;;;2.90;;
54923;SDS011;40825;52.270;20.984;2023-03-05T06:58:20;10.00;;;4.00;;
54923;SDS011;40825;52.270;20.984;2023-03-05T07:00:46;9.40;;;2.10;;
54923;SDS011;40825;52.270;20.984;2023-03-05T07:03:12;8.80;;;2.50;;
54923;SDS011;40825;52.270;20.984;2023-03-05T07:05:38;11.20;;;2.90;;
54923;SDS011;40825;52.270;20.984;2023-03-05T07:08:04;8.20;;;2.60;;
54923;SDS011;40825;52.270;20.984;2023-03-05T07:10:29;8.70;;;2.90;;
54923;SDS011;40825;52.270;20.984;2023-03-05T07:12:55;9.40;;;2.80;;
54923;SDS011;40825;52.270;20.984;2023-03-05T07:15:20;11.00;;;3.30;;
54923;SDS011;40825;52.270;20.984;2023-03-05T07:17:46;9.10;;;2.40;;
54923;SDS011;40825;52.270;20.984;2023-03-05T07:20:12;10.50;;;3.20;;
54923;SDS011;40825;52.270;20.984;2023-03-05T07:22:38;7.80;;;2.90;;
54923;SDS011;40825;52.270;20.984;2023-03-05T07:25:04;8.90;;;3.20;;
54923;SDS011;40825;52.270;20.984;2023-03-05T07:27:33;8.00;;;2.90;;
54923;SDS011;40825;52.270;20.984;2023-03-05T07:29:59;12.20;;;2.80;;
54923;SDS011;40825;52.270;20.984;2023-03-05T07:32:25;9.60;;;3.00;;
54923;SDS011;40825;52.270;20.984;2023-03-05T07:34:50;10.70;;;3.70;;
54923;SDS011;40825;52.270;20.984;2023-03-05T07:37:16;9.50;;;2.60;;
54923;SDS011;40825;52.270;20.984;2023-03-05T07:39:42;7.50;;;2.50;;
54923;SDS011;40825;52.270;20.984;2023-03-05T07:42:07;8.90;;;3.00;;
54923;SDS011;40825;52.270;20.984;2023-03-05T07:44:33;9.90;;;3.10;;
54923;SDS011;40825;52.270;20.984;2023-03-05T07:46:58;8.50;;;3.20;;
54923;SDS011;40825;52.270;20.984;2023-03-05T07:49:24;8.30;;;3.30;;
54923;SDS011;40825;52.270;20.984;2023-03-05T07:51:49;11.40;;;3.40;;
54923;SDS011;40825;52.270;20.984;2023-03-05T07:54:15;11.70;;;3.30;;
54923;SDS011;40825;52.270;20.984;2023-03-05T07:56:40;10.10;;;2.90;;
54923;SDS011;40825;52.270;20.984;2023-03-05T07:59:07;9.50;;;3.00;;
54923;SDS011;40825;52.270;20.984;2023-03-05T08:01:35;10.00;;;3.40;;
54923;SDS011;40825;52.270;20.984;2023-03-05T08:04:01;9.90;;;3.00;;
54923;SDS011;40825;52.270;20.984;2023-03-05T08:06:27;8.80;;;3.10;;
54923;SDS011;40825;52.270;20.984;2023-03-05T08:08:53;9.00;;;3.10;;
54923;SDS011;40825;52.270;20.984;2023-03-05T08:11:19;11.10;;;3.40;;
54923;SDS011;40825;52.270;20.984;2023-03-05T08:13:45;9.70;;;3.00;;
54923;SDS011;40825;52.270;20.984;2023-03-05T08:16:11;8.00;;;3.40;;
54923;SDS011;40825;52.270;20.984;2023-03-05T08:18:42;10.10;;;3.20;;
54923;SDS011;40825;52.270;20.984;2023-03-05T08:21:14;8.60;;;3.80;;
54923;SDS011;40825;52.270;20.984;2023-03-05T08:23:51;11.10;;;3.10;;
54923;SDS011;40825;52.270;20.984;2023-03-05T08:26:18;10.30;;;3.20;;
54923;SDS011;40825;52.270;20.984;2023-03-05T08:28:46;10.10;;;3.10;;
54923;SDS011;40825;52.270;20.984;2023-03-05T08:31:13;11.60;;;3.70;;
54923;SDS011;40825;52.270;20.984;2023-03-05T08:33:40;9.70;;;3.80;;
54923;SDS011;40825;52.270;20.984;2023-03-05T08:36:06;9.40;;;3.60;;
54923;SDS011;40825;52.270;20.984;2023-03-05T08:38:33;12.10;;;4.40;;
54923;SDS011;40825;52.270;20.984;2023-03-05T08:40:59;9.20;;;3.30;;
54923;SDS011;40825;52.270;20.984;2023-03-05T08:43:25;11.80;;;4.20;;
54923;SDS011;40825;52.270;20.984;2023-03-05T08:45:50;12.90;;;4.30;;
54923;SDS011;40825;52.270;20.984;2023-03-05T08:48:17;10.70;;;3.80;;
54923;SDS011;40825;52.270;20.984;2023-03-05T08:50:44;13.80;;;4.00;;
54923;SDS011;40825;52.270;20.984;2023-03-05T08:53:09;14.10;;;4.60;;
54923;SDS011;40825;52.270;20.984;2023-03-05T08:55:35;13.60;;;4.60;;
54923;SDS011;40825;52.270;20.984;2023-03-05T08:58:01;12.60;;;4.50;;
54923;SDS011;40825;52.270;20.984;2023-03-05T09:00:27;12.20;;;4.20;;
54923;SDS011;40825;52.270;20.984;2023-03-05T09:02:52;14.60;;;4.80;;
54923;SDS011;40825;52.270;20.984;2023-03-05T09:05:18;11.30;;;5.30;;
54923;SDS011;40825;52.270;20.984;2023-03-05T09:07:44;14.00;;;5.50;;
54923;SDS011;40825;52.270;20.984;2023-03-05T09:10:10;15.50;;;5.10;;
54923;SDS011;40825;52.270;20.984;2023-03-05T09:12:38;13.90;;;5.50;;
54923;SDS011;40825;52.270;20.984;2023-03-05T09:15:06;13.10;;;4.50;;
54923;SDS011;40825;52.270;20.984;2023-03-05T09:17:33;14.40;;;5.00;;
54923;SDS011;40825;52.270;20.984;2023-03-05T09:20:03;14.00;;;5.50;;
54923;SDS011;40825;52.270;20.984;2023-03-05T09:22:29;15.00;;;5.40;;
54923;SDS011;40825;52.270;20.984;2023-03-05T09:24:55;15.10;;;4.90;;
54923;SDS011;40825;52.270;20.984;2023-03-05T09:27:21;14.00;;;5.40;;
54923;SDS011;40825;52.270;20.984;2023-03-05T09:29:46;13.90;;;4.90;;
54923;SDS011;40825;52.270;20.984;2023-03-05T09:32:12;16.20;;;5.50;;
54923;SDS011;40825;52.270;20.984;2023-03-05T09:34:38;15.50;;;5.80;;
54923;SDS011;40825;52.270;20.984;2023-03-05T09:37:03;15.30;;;4.60;;
54923;SDS011;40825;52.270;20.984;2023-03-05T09:39:29;17.00;;;5.80;;
54923;SDS011;40825;52.270;20.984;2023-03-05T09:42:34;14.90;;;4.50;;
54923;SDS011;40825;52.270;20.984;2023-03-05T09:47:54;17.00;;;5.30;;
54923;SDS011;40825;52.270;20.984;2023-03-05T09:53:24;15.90;;;5.60;;
54923;SDS011;40825;52.270;20.984;2023-03-05T09:56:22;12.60;;;4.60;;
54923;SDS011;40825;52.270;20.984;2023-03-05T09:58:54;16.80;;;6.10;;
54923;SDS011;40825;52.270;20.984;2023-03-05T10:01:28;12.60;;;4.20;;
54923;SDS011;40825;52.270;20.984;2023-03-05T10:06:36;13.70;;;5.80;;
54923;SDS011;40825;52.270;20.984;2023-03-05T10:15:12;14.60;;;6.10;;
54923;SDS011;40825;52.270;20.984;2023-03-05T10:23:24;13.10;;;5.20;;
54923;SDS011;40825;52.270;20.984;2023-03-05T10:25:58;15.10;;;6.30;;
54923;SDS011;40825;52.270;20.984;2023-03-05T10:34:11;14.10;;;6.30;;
54923;SDS011;40825;52.270;20.984;2023-03-05T10:37:11;15.60;;;5.60;;
54923;SDS011;40825;52.270;20.984;2023-03-05T10:45:22;17.30;;;6.60;;
54923;SDS011;40825;52.270;20.984;2023-03-05T10:50:29;13.10;;;5.40;;
54923;SDS011;40825;52.270;20.984;2023-03-05T10:53:12;15.30;;;6.60;;
54923;SDS011;40825;52.270;20.984;2023-03-05T10:56:01;13.10;;;5.50;;
54923;SDS011;40825;52.270;20.984;2023-03-05T10:58:28;14.30;;;6.40;;
54923;SDS011;40825;52.270;20.984;2023-03-05T11:01:01;15.70;;;5.70;;
54923;SDS011;40825;52.270;20.984;2023-03-05T11:03:50;14.80;;;5.90;;
54923;SDS011;40825;52.270;20.984;2023-03-05T11:06:26;13.20;;;4.80;;
54923;SDS011;40825;52.270;20.984;2023-03-05T11:09:31;11.70;;;4.60;;
54923;SDS011;40825;52.270;20.984;2023-03-05T11:14:30;10.70;;;3.80;;
54923;SDS011;40825;52.270;20.984;2023-03-05T11:17:01;9.00;;;3.50;;
54923;SDS011;40825;52.270;20.984;2023-03-05T11:19:49;7.60;;;2.00;;
54923;SDS011;40825;52.270;20.984;2023-03-05T11:22:19;5.80;;;1.70;;
54923;SDS011;40825;52.270;20.984;2023-03-05T11:25:29;4.60;;;1.40;;
54923;SDS011;40825;52.270;20.984;2023-03-05T11:27:37;6.00;;;1.70;;
54923;SDS011;40825;52.270;20.984;2023-03-05T11:30:23;4.40;;;1.40;;
54923;SDS011;40825;52.270;20.984;2023-03-05T11:33:34;5.50;;;1.80;;
54923;SDS011;40825;52.270;20.984;2023-03-05T11:35:45;6.80;;;1.60;;
54923;SDS011;40825;52.270;20.984;2023-03-05T11:40:40;5.40;;;2.00;;
54923;SDS011;40825;52.270;20.984;2023-03-05T11:43:08;5.60;;;1.50;;
54923;SDS011;40825;52.270;20.984;2023-03-05T11:45:50;8.90;;;1.80;;
54923;SDS011;40825;52.270;20.984;2023-03-05T11:48:25;8.00;;;2.20;;
54923;SDS011;40825;52.270;20.984;2023-03-05T11:50:57;7.50;;;2.20;;
54923;SDS011;40825;52.270;20.984;2023-03-05T11:58:34;9.70;;;3.00;;
54923;SDS011;40825;52.270;20.984;2023-03-05T12:01:28;10.40;;;4.00;;
54923;SDS011;40825;52.270;20.984;2023-03-05T12:03:58;13.20;;;4.40;;
54923;SDS011;40825;52.270;20.984;2023-03-05T12:12:11;12.60;;;4.90;;
54923;SDS011;40825;52.270;20.984;2023-03-05T12:25:54;10.70;;;3.90;;
54923;SDS011;40825;52.270;20.984;2023-03-05T12:31:00;8.80;;;4.30;;
54923;SDS011;40825;52.270;20.984;2023-03-05T12:33:30;9.90;;;4.00;;
54923;SDS011;40825;52.270;20.984;2023-03-05T12:38:53;8.70;;;3.10;;
54923;SDS011;40825;52.270;20.984;2023-03-05T12:44:21;6.90;;;2.30;;
54923;SDS011;40825;52.270;20.984;2023-03-05T12:46:44;8.20;;;3.00;;
54923;SDS011;40825;52.270;20.984;2023-03-05T12:49:37;8.10;;;2.90;;
54923;SDS011;40825;52.270;20.984;2023-03-05T12:52:03;10.70;;;3.30;;
54923;SDS011;40825;52.270;20.984;2023-03-05T12:54:37;9.40;;;3.10;;
54923;SDS011;40825;52.270;20.984;2023-03-05T12:57:23;10.70;;;3.80;;
54923;SDS011;40825;52.270;20.984;2023-03-05T13:03:07;8.60;;;3.60;;
54923;SDS011;40825;52.270;20.984;2023-03-05T13:05:49;9.20;;;3.70;;
54923;SDS011;40825;52.270;20.984;2023-03-05T13:08:27;11.20;;;3.70;;
54923;SDS011;40825;52.270;20.984;2023-03-05T13:13:25;9.10;;;3.50;;
54923;SDS011;40825;52.270;20.984;2023-03-05T13:15:53;7.70;;;3.40;;
54923;SDS011;40825;52.270;20.984;2023-03-05T13:18:19;10.20;;;3.70;;
54923;SDS011;40825;52.270;20.984;2023-03-05T13:20:47;10.50;;;3.10;;
54923;SDS011;40825;52.270;20.984;2023-03-05T13:23:28;8.30;;;2.80;;
54923;SDS011;40825;52.270;20.984;2023-03-05T13:28:25;9.20;;;2.40;;
54923;SDS011;40825;52.270;20.984;2023-03-05T13:30:52;6.40;;;2.80;;
54923;SDS011;40825;52.270;20.984;2023-03-05T13:33:32;7.00;;;2.00;;
54923;SDS011;40825;52.270;20.984;2023-03-05T13:36:02;6.20;;;2.30;;
54923;SDS011;40825;52.270;20.984;2023-03-05T13:38:31;7.60;;;2.70;;
54923;SDS011;40825;52.270;20.984;2023-03-05T13:41:01;5.70;;;2.40;;
54923;SDS011;40825;52.270;20.984;2023-03-05T13:43:30;6.20;;;2.30;;
54923;SDS011;40825;52.270;20.984;2023-03-05T13:45:56;7.10;;;2.30;;
54923;SDS011;40825;52.270;20.984;2023-03-05T13:48:22;8.60;;;2.70;;
54923;SDS011;40825;52.270;20.984;2023-03-05T13:50:55;7.30;;;2.10;;
54923;SDS011;40825;52.270;20.984;2023-03-05T13:53:24;7.80;;;2.50;;
54923;SDS011;40825;52.270;20.984;2023-03-05T13:56:01;8.50;;;2.60;;
54923;SDS011;40825;52.270;20.984;2023-03-05T14:01:43;6.40;;;1.90;;
54923;SDS011;40825;52.270;20.984;2023-03-05T14:09:44;7.40;;;2.00;;
54923;SDS011;40825;52.270;20.984;2023-03-05T14:14:59;7.90;;;2.30;;
54923;SDS011;40825;52.270;20.984;2023-03-05T14:22:36;6.90;;;3.60;;
54923;SDS011;40825;52.270;20.984;2023-03-05T14:25:04;11.00;;;3.30;;
54923;SDS011;40825;52.270;20.984;2023-03-05T14:27:35;9.80;;;3.80;;
54923;SDS011;40825;52.270;20.984;2023-03-05T14:32:29;12.10;;;3.50;;
54923;SDS011;40825;52.270;20.984;2023-03-05T14:34:58;7.60;;;2.60;;
54923;SDS011;40825;52.270;20.984;2023-03-05T14:37:33;9.10;;;2.80;;
54923;SDS011;40825;52.270;20.984;2023-03-05T14:40:02;9.10;;;3.30;;
54923;SDS011;40825;52.270;20.984;2023-03-05T14:44:57;8.50;;;3.40;;
54923;SDS011;40825;52.270;20.984;2023-03-05T14:47:25;11.70;;;3.50;;
54923;SDS011;40825;52.270;20.984;2023-03-05T14:49:52;10.20;;;2.80;;
54923;SDS011;40825;52.270;20.984;2023-03-05T14:52:18;10.00;;;3.70;;
54923;SDS011;40825;52.270;20.984;2023-03-05T14:54:46;8.60;;;3.40;;
54923;SDS011;40825;52.270;20.984;2023-03-05T14:57:17;10.50;;;4.20;;
54923;SDS011;40825;52.270;20.984;2023-03-05T14:59:46;10.70;;;3.50;;
54923;SDS011;40825;52.270;20.984;2023-03-05T15:02:18;11.30;;;4.40;;
54923;SDS011;40825;52.270;20.984;2023-03-05T15:04:49;8.90;;;3.40;;
54923;SDS011;40825;52.270;20.984;2023-03-05T15:07:30;10.10;;;3.40;;
54923;SDS011;40825;52.270;20.984;2023-03-05T15:12:22;9.70;;;3.30;;
54923;SDS011;40825;52.270;20.984;2023-03-05T15:14:52;11.50;;;3.50;;
54923;SDS011;40825;52.270;20.984;2023-03-05T15:17:20;10.70;;;3.50;;
54923;SDS011;40825;52.270;20.984;2023-03-05T15:19:50;8.90;;;3.20;;
54923;SDS011;40825;52.270;20.984;2023-03-05T15:22:17;10.50;;;3.70;;
54923;SDS011;40825;52.270;20.984;2023-03-05T15:24:43;9.60;;;3.80;;
54923;SDS011;40825;52.270;20.984;2023-03-05T15:27:09;9.30;;;3.40;;
54923;SDS011;40825;52.270;20.984;2023-03-05T15:29:36;12.20;;;3.60;;
54923;SDS011;40825;52.270;20.984;2023-03-05T15:32:02;12.10;;;4.70;;
54923;SDS011;40825;52.270;20.984;2023-03-05T15:34:30;13.30;;;3.60;;
54923;SDS011;40825;52.270;20.984;2023-03-05T15:36:55;11.20;;;4.10;;
54923;SDS011;40825;52.270;20.984;2023-03-05T15:39:21;11.00;;;4.00;;
54923;SDS011;40825;52.270;20.984;2023-03-05T15:41:50;11.40;;;4.20;;
54923;SDS011;40825;52.270;20.984;2023-03-05T15:44:17;11.20;;;3.80;;
54923;SDS011;40825;52.270;20.984;2023-03-05T15:46:42;10.30;;;4.10;;
54923;SDS011;40825;52.270;20.984;2023-03-05T15:49:08;11.30;;;4.80;;
54923;SDS011;40825;52.270;20.984;2023-03-05T15:51:33;10.60;;;4.10;;
54923;SDS011;40825;52.270;20.984;2023-03-05T15:53:59;9.10;;;3.80;;
54923;SDS011;40825;52.270;20.984;2023-03-05T15:56:24;11.20;;;3.80;;
54923;SDS011;40825;52.270;20.984;2023-03-05T15:58:50;12.10;;;4.20;;
54923;SDS011;40825;52.270;20.984;2023-03-05T16:01:16;9.50;;;3.30;;
54923;SDS011;40825;52.270;20.984;2023-03-05T16:03:43;10.80;;;4.50;;
54923;SDS011;40825;52.270;20.984;2023-03-05T16:06:09;11.70;;;4.40;;
54923;SDS011;40825;52.270;20.984;2023-03-05T16:08:38;13.40;;;5.00;;
54923;SDS011;40825;52.270;20.984;2023-03-05T16:11:06;11.60;;;4.20;;
54923;SDS011;40825;52.270;20.984;2023-03-05T16:13:32;13.00;;;5.10;;
54923;SDS011;40825;52.270;20.984;2023-03-05T16:15:59;10.30;;;4.70;;
54923;SDS011;40825;52.270;20.984;2023-03-05T16:18:28;10.60;;;4.20;;
54923;SDS011;40825;52.270;20.984;2023-03-05T16:20:55;14.60;;;4.70;;
54923;SDS011;40825;52.270;20.984;2023-03-05T16:23:21;14.20;;;5.00;;